sensor_id;sensor_type;location;lat;lon;timestamp;P1;durP1;ratioP1;P2;durP2;ratioP2
20034;SDS011;10178;48.034;9.800;2023-02-15T00:01:43;12.13;;;9.37;;
20034;SDS011;10178;48.034;9.800;2023-02-15T00:04:09;13.47;;;10.00;;
20034;SDS011;10178;48.034;9.800;2023-02-15T00:06:37;12.67;;;9.43;;
20034;SDS011;10178;48.034;9.800;2023-02-15T00:09:02;12.17;;;9.33;;
20034;SDS011;10178;48.034;9.800;2023-02-15T00:11:28;12.63;;;9.73;;
20034;SDS011;10178;48.034;9.800;2023-02-15T00:16:36;12.40;;;9.50;;
20034;SDS011;10178;48.034;9.800;2023-02-15T00:19:03;15.00;;;9.93;;
20034;SDS011;10178;48.034;9.800;2023-02-15T00:21:31;13.27;;;9.73;;
20034;SDS011;10178;48.034;9.800;2023-02-15T00:23:58;12.63;;;9.43;;
20034;SDS011;10178;48.034;9.800;2023-02-15T00:26:25;12.03;;;9.27;;
20034;SDS011;10178;48.034;9.800;2023-02-15T00:28:52;11.73;;;9.20;;
20034;SDS011;10178;48.034;9.800;2023-02-15T00:31:18;162.60;;;14.27;;
20034;SDS011;10178;48.034;9.800;2023-02-15T00:33:44;175.00;;;13.77;;
20034;SDS011;10178;48.034;9.800;2023-02-15T00:36:10;124.53;;;12.47;;
20034;SDS011;10178;48.034;9.800;2023-02-15T00:38:36;12.40;;;9.57;;
20034;SDS011;10178;48.034;9.800;2023-02-15T00:41:03;11.60;;;9.17;;
20034;SDS011;10178;48.034;9.800;2023-02-15T00:43:31;12.27;;;9.43;;
20034;SDS011;10178;48.034;9.800;2023-02-15T00:45:58;10.83;;;8.83;;
20034;SDS011;10178;48.034;9.800;2023-02-15T00:48:24;11.67;;;8.90;;
20034;SDS011;10178;48.034;9.800;2023-02-15T00:50:51;11.43;;;8.93;;
20034;SDS011;10178;48.034;9.800;2023-02-15T00:53:18;11.20;;;8.70;;
20034;SDS011;10178;48.034;9.800;2023-02-15T00:55:44;11.23;;;8.83;;
20034;SDS011;10178;48.034;9.800;2023-02-15T00:58:10;10.97;;;9.10;;
20034;SDS011;10178;48.034;9.800;2023-02-15T01:00:37;12.17;;;9.30;;
20034;SDS011;10178;48.034;9.800;2023-02-15T01:03:03;11.20;;;8.50;;
20034;SDS011;10178;48.034;9.800;2023-02-15T01:05:29;10.83;;;9.13;;
20034;SDS011;10178;48.034;9.800;2023-02-15T01:07:56;10.27;;;8.40;;
20034;SDS011;10178;48.034;9.800;2023-02-15T01:10:23;9.47;;;7.73;;
20034;SDS011;10178;48.034;9.800;2023-02-15T01:12:49;11.63;;;8.80;;
20034;SDS011;10178;48.034;9.800;2023-02-15T01:15:15;9.90;;;8.37;;
20034;SDS011;10178;48.034;9.800;2023-02-15T01:17:41;10.67;;;8.53;;
20034;SDS011;10178;48.034;9.800;2023-02-15T01:20:09;10.83;;;8.37;;
20034;SDS011;10178;48.034;9.800;2023-02-15T01:22:35;11.00;;;8.67;;
20034;SDS011;10178;48.034;9.800;2023-02-15T01:25:00;66.03;;;10.60;;
20034;SDS011;10178;48.034;9.800;2023-02-15T01:27:26;54.27;;;9.57;;
20034;SDS011;10178;48.034;9.800;2023-02-15T01:29:51;12.17;;;8.63;;
20034;SDS011;10178;48.034;9.800;2023-02-15T01:32:17;10.43;;;8.07;;
20034;SDS011;10178;48.034;9.800;2023-02-15T01:34:43;25.83;;;9.70;;
20034;SDS011;10178;48.034;9.800;2023-02-15T01:37:08;102.53;;;11.53;;
20034;SDS011;10178;48.034;9.800;2023-02-15T01:39:34;12.47;;;8.70;;
20034;SDS011;10178;48.034;9.800;2023-02-15T01:41:59;60.40;;;11.00;;
20034;SDS011;10178;48.034;9.800;2023-02-15T01:47:14;14.33;;;9.93;;
20034;SDS011;10178;48.034;9.800;2023-02-15T01:49:44;15.47;;;9.50;;
20034;SDS011;10178;48.034;9.800;2023-02-15T01:52:12;12.60;;;9.80;;
20034;SDS011;10178;48.034;9.800;2023-02-15T01:54:41;30.03;;;10.70;;
20034;SDS011;10178;48.034;9.800;2023-02-15T01:57:10;10.77;;;8.13;;
20034;SDS011;10178;48.034;9.800;2023-02-15T01:59:40;11.23;;;8.50;;
20034;SDS011;10178;48.034;9.800;2023-02-15T02:02:11;11.57;;;8.57;;
20034;SDS011;10178;48.034;9.800;2023-02-15T02:04:43;11.53;;;8.63;;
20034;SDS011;10178;48.034;9.800;2023-02-15T02:07:15;10.97;;;7.70;;
20034;SDS011;10178;48.034;9.800;2023-02-15T02:09:44;65.60;;;10.27;;
20034;SDS011;10178;48.034;9.800;2023-02-15T02:12:10;9.80;;;7.57;;
20034;SDS011;10178;48.034;9.800;2023-02-15T02:14:37;10.13;;;7.70;;
20034;SDS011;10178;48.034;9.800;2023-02-15T02:17:22;10.00;;;7.90;;
20034;SDS011;10178;48.034;9.800;2023-02-15T02:26:12;9.83;;;7.67;;
20034;SDS011;10178;48.034;9.800;2023-02-15T02:36:50;11.07;;;8.13;;
20034;SDS011;10178;48.034;9.800;2023-02-15T02:42:03;34.53;;;9.70;;
20034;SDS011;10178;48.034;9.800;2023-02-15T02:44:40;9.80;;;7.90;;
20034;SDS011;10178;48.034;9.800;2023-02-15T02:49:42;10.70;;;7.83;;
20034;SDS011;10178;48.034;9.800;2023-02-15T02:54:58;9.73;;;7.73;;
20034;SDS011;10178;48.034;9.800;2023-02-15T02:57:25;10.50;;;7.73;;
20034;SDS011;10178;48.034;9.800;2023-02-15T02:59:52;8.97;;;7.10;;
20034;SDS011;10178;48.034;9.800;2023-02-15T03:02:24;10.03;;;7.50;;
20034;SDS011;10178;48.034;9.800;2023-02-15T03:04:56;96.03;;;10.60;;
20034;SDS011;10178;48.034;9.800;2023-02-15T03:07:28;117.00;;;12.40;;
20034;SDS011;10178;48.034;9.800;2023-02-15T03:09:57;11.17;;;8.83;;
20034;SDS011;10178;48.034;9.800;2023-02-15T03:14:57;11.53;;;8.43;;
20034;SDS011;10178;48.034;9.800;2023-02-15T03:17:35;9.53;;;7.27;;
20034;SDS011;10178;48.034;9.800;2023-02-15T03:20:08;10.33;;;7.97;;
20034;SDS011;10178;48.034;9.800;2023-02-15T03:23:02;10.13;;;7.80;;
20034;SDS011;10178;48.034;9.800;2023-02-15T03:25:34;11.07;;;8.13;;
20034;SDS011;10178;48.034;9.800;2023-02-15T03:28:16;10.17;;;7.50;;
20034;SDS011;10178;48.034;9.800;2023-02-15T03:30:46;9.37;;;7.53;;
20034;SDS011;10178;48.034;9.800;2023-02-15T03:33:17;11.50;;;7.97;;
20034;SDS011;10178;48.034;9.800;2023-02-15T03:38:20;9.70;;;7.43;;
20034;SDS011;10178;48.034;9.800;2023-02-15T03:40:54;8.87;;;7.00;;
20034;SDS011;10178;48.034;9.800;2023-02-15T03:43:48;9.93;;;7.60;;
20034;SDS011;10178;48.034;9.800;2023-02-15T03:48:56;10.50;;;7.37;;
20034;SDS011;10178;48.034;9.800;2023-02-15T03:51:28;10.13;;;7.63;;
20034;SDS011;10178;48.034;9.800;2023-02-15T03:54:01;8.73;;;6.80;;
20034;SDS011;10178;48.034;9.800;2023-02-15T03:56:30;9.33;;;7.33;;
20034;SDS011;10178;48.034;9.800;2023-02-15T03:58:56;9.93;;;7.33;;
20034;SDS011;10178;48.034;9.800;2023-02-15T04:04:36;43.93;;;9.53;;
20034;SDS011;10178;48.034;9.800;2023-02-15T04:07:04;124.73;;;12.90;;
20034;SDS011;10178;48.034;9.800;2023-02-15T04:56:33;13.53;;;9.40;;
20034;SDS011;10178;48.034;9.800;2023-02-15T04:59:00;15.27;;;9.77;;
20034;SDS011;10178;48.034;9.800;2023-02-15T05:01:25;20.70;;;10.40;;
20034;SDS011;10178;48.034;9.800;2023-02-15T05:03:51;11.17;;;8.33;;
20034;SDS011;10178;48.034;9.800;2023-02-15T05:08:46;11.30;;;7.60;;
20034;SDS011;10178;48.034;9.800;2023-02-15T05:11:12;10.87;;;8.20;;
20034;SDS011;10178;48.034;9.800;2023-02-15T05:13:37;12.20;;;8.03;;
20034;SDS011;10178;48.034;9.800;2023-02-15T05:16:03;14.87;;;8.17;;
20034;SDS011;10178;48.034;9.800;2023-02-15T05:18:29;17.77;;;9.23;;
20034;SDS011;10178;48.034;9.800;2023-02-15T05:20:54;55.47;;;10.23;;
20034;SDS011;10178;48.034;9.800;2023-02-15T05:23:20;30.30;;;9.63;;
20034;SDS011;10178;48.034;9.800;2023-02-15T05:25:49;20.97;;;8.57;;
20034;SDS011;10178;48.034;9.800;2023-02-15T05:28:35;11.53;;;8.17;;
20034;SDS011;10178;48.034;9.800;2023-02-15T05:31:09;17.00;;;9.07;;
20034;SDS011;10178;48.034;9.800;2023-02-15T05:33:40;11.27;;;7.70;;
20034;SDS011;10178;48.034;9.800;2023-02-15T05:36:06;10.90;;;7.67;;
20034;SDS011;10178;48.034;9.800;2023-02-15T05:38:32;11.77;;;8.30;;
20034;SDS011;10178;48.034;9.800;2023-02-15T05:40:58;11.47;;;8.10;;
20034;SDS011;10178;48.034;9.800;2023-02-15T05:43:24;11.60;;;7.87;;
20034;SDS011;10178;48.034;9.800;2023-02-15T05:45:51;9.63;;;7.77;;
20034;SDS011;10178;48.034;9.800;2023-02-15T05:48:19;17.83;;;9.10;;
20034;SDS011;10178;48.034;9.800;2023-02-15T05:50:45;31.60;;;9.60;;
20034;SDS011;10178;48.034;9.800;2023-02-15T05:53:11;9.20;;;7.53;;
20034;SDS011;10178;48.034;9.800;2023-02-15T05:55:38;11.80;;;8.30;;
20034;SDS011;10178;48.034;9.800;2023-02-15T05:58:04;12.67;;;8.93;;
20034;SDS011;10178;48.034;9.800;2023-02-15T06:00:30;10.73;;;7.83;;
20034;SDS011;10178;48.034;9.800;2023-02-15T06:02:56;10.70;;;8.27;;
20034;SDS011;10178;48.034;9.800;2023-02-15T06:05:21;14.60;;;9.30;;
20034;SDS011;10178;48.034;9.800;2023-02-15T06:07:47;10.23;;;7.43;;
20034;SDS011;10178;48.034;9.800;2023-02-15T06:10:13;11.03;;;8.37;;
20034;SDS011;10178;48.034;9.800;2023-02-15T06:12:38;11.27;;;8.13;;
20034;SDS011;10178;48.034;9.800;2023-02-15T06:15:04;13.37;;;8.30;;
20034;SDS011;10178;48.034;9.800;2023-02-15T06:17:30;13.60;;;9.20;;
20034;SDS011;10178;48.034;9.800;2023-02-15T06:19:55;11.30;;;8.40;;
20034;SDS011;10178;48.034;9.800;2023-02-15T06:22:21;13.80;;;8.93;;
20034;SDS011;10178;48.034;9.800;2023-02-15T06:24:47;10.17;;;8.10;;
20034;SDS011;10178;48.034;9.800;2023-02-15T06:27:13;12.17;;;9.00;;
20034;SDS011;10178;48.034;9.800;2023-02-15T06:29:39;13.80;;;8.67;;
20034;SDS011;10178;48.034;9.800;2023-02-15T06:32:04;13.70;;;9.30;;
20034;SDS011;10178;48.034;9.800;2023-02-15T06:34:30;13.20;;;8.40;;
20034;SDS011;10178;48.034;9.800;2023-02-15T06:36:56;11.03;;;8.23;;
20034;SDS011;10178;48.034;9.800;2023-02-15T06:39:22;10.43;;;8.17;;
20034;SDS011;10178;48.034;9.800;2023-02-15T06:41:47;10.30;;;7.57;;
20034;SDS011;10178;48.034;9.800;2023-02-15T06:44:13;10.73;;;7.43;;
20034;SDS011;10178;48.034;9.800;2023-02-15T06:46:39;10.10;;;8.07;;
20034;SDS011;10178;48.034;9.800;2023-02-15T06:49:04;10.20;;;7.73;;
20034;SDS011;10178;48.034;9.800;2023-02-15T06:51:30;9.13;;;7.20;;
20034;SDS011;10178;48.034;9.800;2023-02-15T06:53:56;10.07;;;7.47;;
20034;SDS011;10178;48.034;9.800;2023-02-15T06:56:21;10.00;;;7.73;;
20034;SDS011;10178;48.034;9.800;2023-02-15T06:58:47;9.57;;;7.40;;
20034;SDS011;10178;48.034;9.800;2023-02-15T07:01:14;10.90;;;8.27;;
20034;SDS011;10178;48.034;9.800;2023-02-15T07:03:40;11.47;;;7.67;;
20034;SDS011;10178;48.034;9.800;2023-02-15T07:06:06;10.97;;;7.40;;
20034;SDS011;10178;48.034;9.800;2023-02-15T07:08:34;12.37;;;8.00;;
20034;SDS011;10178;48.034;9.800;2023-02-15T07:11:00;10.10;;;7.60;;
20034;SDS011;10178;48.034;9.800;2023-02-15T07:13:49;10.13;;;7.93;;
20034;SDS011;10178;48.034;9.800;2023-02-15T07:16:15;11.70;;;8.33;;
20034;SDS011;10178;48.034;9.800;2023-02-15T07:18:40;10.40;;;7.80;;
20034;SDS011;10178;48.034;9.800;2023-02-15T07:21:06;10.80;;;8.03;;
20034;SDS011;10178;48.034;9.800;2023-02-15T07:23:38;9.90;;;7.60;;
20034;SDS011;10178;48.034;9.800;2023-02-15T07:26:05;11.43;;;8.40;;
20034;SDS011;10178;48.034;9.800;2023-02-15T07:28:32;14.47;;;9.30;;
20034;SDS011;10178;48.034;9.800;2023-02-15T07:30:58;24.10;;;11.07;;
20034;SDS011;10178;48.034;9.800;2023-02-15T07:33:26;15.33;;;9.43;;
20034;SDS011;10178;48.034;9.800;2023-02-15T07:35:53;33.53;;;12.70;;
20034;SDS011;10178;48.034;9.800;2023-02-15T07:38:20;20.07;;;11.47;;
20034;SDS011;10178;48.034;9.800;2023-02-15T07:40:46;26.73;;;11.30;;
20034;SDS011;10178;48.034;9.800;2023-02-15T07:43:13;12.43;;;9.00;;
20034;SDS011;10178;48.034;9.800;2023-02-15T07:45:39;15.07;;;9.00;;
20034;SDS011;10178;48.034;9.800;2023-02-15T07:48:05;14.67;;;9.53;;
20034;SDS011;10178;48.034;9.800;2023-02-15T07:50:32;11.73;;;8.70;;
20034;SDS011;10178;48.034;9.800;2023-02-15T07:52:58;13.93;;;9.23;;
20034;SDS011;10178;48.034;9.800;2023-02-15T07:55:25;12.57;;;9.33;;
20034;SDS011;10178;48.034;9.800;2023-02-15T07:57:51;12.73;;;9.33;;
20034;SDS011;10178;48.034;9.800;2023-02-15T08:00:19;13.43;;;8.90;;
20034;SDS011;10178;48.034;9.800;2023-02-15T08:02:50;11.80;;;8.73;;
20034;SDS011;10178;48.034;9.800;2023-02-15T08:05:36;13.13;;;9.40;;
20034;SDS011;10178;48.034;9.800;2023-02-15T08:08:02;21.80;;;10.60;;
20034;SDS011;10178;48.034;9.800;2023-02-15T08:10:28;15.90;;;10.47;;
20034;SDS011;10178;48.034;9.800;2023-02-15T08:13:12;17.20;;;10.67;;
20034;SDS011;10178;48.034;9.800;2023-02-15T08:15:38;14.33;;;9.53;;
20034;SDS011;10178;48.034;9.800;2023-02-15T08:18:03;14.30;;;10.27;;
20034;SDS011;10178;48.034;9.800;2023-02-15T08:20:29;13.83;;;9.40;;
20034;SDS011;10178;48.034;9.800;2023-02-15T08:22:55;14.03;;;9.60;;
20034;SDS011;10178;48.034;9.800;2023-02-15T08:25:20;14.87;;;9.90;;
20034;SDS011;10178;48.034;9.800;2023-02-15T08:27:46;15.90;;;10.20;;
20034;SDS011;10178;48.034;9.800;2023-02-15T08:30:11;13.23;;;9.60;;
20034;SDS011;10178;48.034;9.800;2023-02-15T08:32:39;14.67;;;9.37;;
20034;SDS011;10178;48.034;9.800;2023-02-15T08:35:04;13.70;;;10.07;;
20034;SDS011;10178;48.034;9.800;2023-02-15T08:37:30;13.90;;;9.53;;
20034;SDS011;10178;48.034;9.800;2023-02-15T08:39:56;23.67;;;12.53;;
20034;SDS011;10178;48.034;9.800;2023-02-15T08:42:21;15.00;;;9.77;;
20034;SDS011;10178;48.034;9.800;2023-02-15T08:44:47;34.60;;;18.07;;
20034;SDS011;10178;48.034;9.800;2023-02-15T08:47:15;35.60;;;17.10;;
20034;SDS011;10178;48.034;9.800;2023-02-15T08:49:41;76.77;;;50.27;;
20034;SDS011;10178;48.034;9.800;2023-02-15T08:52:06;62.80;;;38.70;;
20034;SDS011;10178;48.034;9.800;2023-02-15T08:54:32;36.17;;;19.93;;
20034;SDS011;10178;48.034;9.800;2023-02-15T08:56:57;47.38;;;21.83;;
20034;SDS011;10178;48.034;9.800;2023-02-15T08:59:23;52.47;;;22.87;;
20034;SDS011;10178;48.034;9.800;2023-02-15T09:01:51;47.90;;;30.17;;
20034;SDS011;10178;48.034;9.800;2023-02-15T09:04:18;42.93;;;21.37;;
20034;SDS011;10178;48.034;9.800;2023-02-15T09:06:45;42.83;;;23.73;;
20034;SDS011;10178;48.034;9.800;2023-02-15T09:09:12;43.37;;;22.03;;
20034;SDS011;10178;48.034;9.800;2023-02-15T09:11:39;44.20;;;27.10;;
20034;SDS011;10178;48.034;9.800;2023-02-15T09:14:07;42.07;;;27.33;;
20034;SDS011;10178;48.034;9.800;2023-02-15T09:16:41;44.13;;;27.70;;
20034;SDS011;10178;48.034;9.800;2023-02-15T09:19:11;42.37;;;24.37;;
20034;SDS011;10178;48.034;9.800;2023-02-15T09:21:37;41.13;;;25.37;;
20034;SDS011;10178;48.034;9.800;2023-02-15T09:24:04;44.20;;;25.00;;
20034;SDS011;10178;48.034;9.800;2023-02-15T09:26:33;32.37;;;17.23;;
20034;SDS011;10178;48.034;9.800;2023-02-15T09:29:02;31.97;;;18.83;;
20034;SDS011;10178;48.034;9.800;2023-02-15T09:31:29;33.67;;;18.17;;
20034;SDS011;10178;48.034;9.800;2023-02-15T09:33:57;29.00;;;17.57;;
20034;SDS011;10178;48.034;9.800;2023-02-15T09:36:30;30.30;;;18.33;;
20034;SDS011;10178;48.034;9.800;2023-02-15T09:55:54;25.93;;;15.83;;
20034;SDS011;10178;48.034;9.800;2023-02-15T09:58:45;24.10;;;14.50;;
20034;SDS011;10178;48.034;9.800;2023-02-15T10:06:53;24.93;;;14.70;;
20034;SDS011;10178;48.034;9.800;2023-02-15T10:09:38;23.83;;;14.33;;
20034;SDS011;10178;48.034;9.800;2023-02-15T10:33:48;20.53;;;13.60;;
20034;SDS011;10178;48.034;9.800;2023-02-15T11:06:36;18.70;;;12.43;;
20034;SDS011;10178;48.034;9.800;2023-02-15T11:09:10;18.23;;;12.30;;
20034;SDS011;10178;48.034;9.800;2023-02-15T11:11:38;22.17;;;13.15;;
20034;SDS011;10178;48.034;9.800;2023-02-15T11:14:17;21.80;;;14.17;;
20034;SDS011;10178;48.034;9.800;2023-02-15T11:17:12;16.65;;;11.23;;
20034;SDS011;10178;48.034;9.800;2023-02-15T11:19:53;22.73;;;14.53;;
20034;SDS011;10178;48.034;9.800;2023-02-15T11:22:28;23.70;;;14.67;;
20034;SDS011;10178;48.034;9.800;2023-02-15T11:24:55;19.83;;;12.30;;
20034;SDS011;10178;48.034;9.800;2023-02-15T11:27:25;18.50;;;12.60;;
20034;SDS011;10178;48.034;9.800;2023-02-15T11:30:04;19.73;;;12.33;;
20034;SDS011;10178;48.034;9.800;2023-02-15T11:32:40;21.70;;;13.90;;
20034;SDS011;10178;48.034;9.800;2023-02-15T11:37:40;22.60;;;15.43;;
20034;SDS011;10178;48.034;9.800;2023-02-15T11:40:28;17.77;;;12.07;;
20034;SDS011;10178;48.034;9.800;2023-02-15T11:42:58;21.15;;;12.70;;
20034;SDS011;10178;48.034;9.800;2023-02-15T11:45:29;17.17;;;11.50;;
20034;SDS011;10178;48.034;9.800;2023-02-15T11:47:57;21.00;;;14.15;;
20034;SDS011;10178;48.034;9.800;2023-02-15T11:50:25;20.65;;;12.18;;
20034;SDS011;10178;48.034;9.800;2023-02-15T11:52:58;23.75;;;14.85;;
20034;SDS011;10178;48.034;9.800;2023-02-15T11:55:30;20.53;;;13.03;;
20034;SDS011;10178;48.034;9.800;2023-02-15T12:00:56;21.37;;;13.77;;
20034;SDS011;10178;48.034;9.800;2023-02-15T12:03:48;19.70;;;13.27;;
20034;SDS011;10178;48.034;9.800;2023-02-15T12:06:21;23.00;;;14.90;;
20034;SDS011;10178;48.034;9.800;2023-02-15T12:08:54;21.13;;;13.27;;
20034;SDS011;10178;48.034;9.800;2023-02-15T12:11:29;19.23;;;13.23;;
20034;SDS011;10178;48.034;9.800;2023-02-15T12:14:01;22.07;;;14.10;;
20034;SDS011;10178;48.034;9.800;2023-02-15T12:16:50;21.43;;;13.57;;
20034;SDS011;10178;48.034;9.800;2023-02-15T12:19:29;24.33;;;13.87;;
20034;SDS011;10178;48.034;9.800;2023-02-15T12:22:03;20.57;;;13.67;;
20034;SDS011;10178;48.034;9.800;2023-02-15T12:24:32;21.52;;;13.88;;
20034;SDS011;10178;48.034;9.800;2023-02-15T12:27:13;22.43;;;13.13;;
20034;SDS011;10178;48.034;9.800;2023-02-15T12:29:41;27.40;;;15.85;;
20034;SDS011;10178;48.034;9.800;2023-02-15T12:34:50;26.70;;;16.27;;
20034;SDS011;10178;48.034;9.800;2023-02-15T12:39:52;29.10;;;16.13;;
20034;SDS011;10178;48.034;9.800;2023-02-15T12:42:18;22.47;;;14.00;;
20034;SDS011;10178;48.034;9.800;2023-02-15T12:47:24;24.60;;;14.63;;
20034;SDS011;10178;48.034;9.800;2023-02-15T12:52:43;23.83;;;16.30;;
20034;SDS011;10178;48.034;9.800;2023-02-15T12:55:11;23.70;;;14.65;;
20034;SDS011;10178;48.034;9.800;2023-02-15T12:57:47;22.23;;;15.03;;
20034;SDS011;10178;48.034;9.800;2023-02-15T13:02:47;22.52;;;14.45;;
20034;SDS011;10178;48.034;9.800;2023-02-15T13:05:21;26.43;;;15.97;;
20034;SDS011;10178;48.034;9.800;2023-02-15T13:08:00;26.47;;;15.40;;
20034;SDS011;10178;48.034;9.800;2023-02-15T13:10:29;26.88;;;15.35;;
20034;SDS011;10178;48.034;9.800;2023-02-15T13:12:59;23.40;;;13.43;;
20034;SDS011;10178;48.034;9.800;2023-02-15T13:15:37;25.42;;;14.57;;
20034;SDS011;10178;48.034;9.800;2023-02-15T13:18:08;22.25;;;14.02;;
20034;SDS011;10178;48.034;9.800;2023-02-15T13:20:39;23.88;;;14.07;;
20034;SDS011;10178;48.034;9.800;2023-02-15T13:25:57;24.20;;;14.40;;
20034;SDS011;10178;48.034;9.800;2023-02-15T13:28:26;23.95;;;14.80;;
20034;SDS011;10178;48.034;9.800;2023-02-15T13:30:59;26.23;;;15.25;;
20034;SDS011;10178;48.034;9.800;2023-02-15T13:33:26;21.73;;;13.13;;
20034;SDS011;10178;48.034;9.800;2023-02-15T13:36:12;20.40;;;13.48;;
20034;SDS011;10178;48.034;9.800;2023-02-15T13:41:12;18.42;;;11.73;;
20034;SDS011;10178;48.034;9.800;2023-02-15T13:44:51;18.15;;;11.65;;
20034;SDS011;10178;48.034;9.800;2023-02-15T13:49:37;16.60;;;11.55;;
20034;SDS011;10178;48.034;9.800;2023-02-15T14:00:34;19.63;;;12.80;;
20034;SDS011;10178;48.034;9.800;2023-02-15T14:11:33;19.00;;;12.10;;
20034;SDS011;10178;48.034;9.800;2023-02-15T14:17:20;25.77;;;14.82;;
20034;SDS011;10178;48.034;9.800;2023-02-15T14:19:59;19.00;;;11.90;;
20034;SDS011;10178;48.034;9.800;2023-02-15T14:22:35;17.95;;;11.20;;
20034;SDS011;10178;48.034;9.800;2023-02-15T14:25:25;21.42;;;12.15;;
20034;SDS011;10178;48.034;9.800;2023-02-15T14:27:59;19.35;;;12.38;;
20034;SDS011;10178;48.034;9.800;2023-02-15T14:30:34;19.77;;;12.75;;
20034;SDS011;10178;48.034;9.800;2023-02-15T14:35:31;16.85;;;11.05;;
20034;SDS011;10178;48.034;9.800;2023-02-15T14:40:54;16.00;;;11.05;;
20034;SDS011;10178;48.034;9.800;2023-02-15T14:48:46;18.20;;;10.52;;
20034;SDS011;10178;48.034;9.800;2023-02-15T14:54:08;22.20;;;14.20;;
20034;SDS011;10178;48.034;9.800;2023-02-15T14:56:35;24.85;;;13.85;;
20034;SDS011;10178;48.034;9.800;2023-02-15T15:02:28;20.05;;;12.82;;
20034;SDS011;10178;48.034;9.800;2023-02-15T15:07:27;21.95;;;13.48;;
20034;SDS011;10178;48.034;9.800;2023-02-15T15:10:06;21.30;;;12.55;;
20034;SDS011;10178;48.034;9.800;2023-02-15T15:15:32;21.85;;;12.88;;
20034;SDS011;10178;48.034;9.800;2023-02-15T15:18:08;26.65;;;13.13;;
20034;SDS011;10178;48.034;9.800;2023-02-15T15:38:56;24.52;;;13.27;;
20034;SDS011;10178;48.034;9.800;2023-02-15T15:41:41;26.40;;;13.77;;
20034;SDS011;10178;48.034;9.800;2023-02-15T15:49:29;28.88;;;14.75;;
20034;SDS011;10178;48.034;9.800;2023-02-15T15:52:01;22.73;;;14.00;;
20034;SDS011;10178;48.034;9.800;2023-02-15T15:54:28;22.63;;;12.95;;
20034;SDS011;10178;48.034;9.800;2023-02-15T15:57:00;23.20;;;14.75;;
20034;SDS011;10178;48.034;9.800;2023-02-15T15:59:29;24.92;;;14.70;;
20034;SDS011;10178;48.034;9.800;2023-02-15T16:02:07;23.50;;;13.85;;
20034;SDS011;10178;48.034;9.800;2023-02-15T16:04:36;25.80;;;14.40;;
20034;SDS011;10178;48.034;9.800;2023-02-15T16:09:59;23.05;;;14.07;;
20034;SDS011;10178;48.034;9.800;2023-02-15T16:12:33;27.45;;;15.10;;
20034;SDS011;10178;48.034;9.800;2023-02-15T16:15:01;25.40;;;13.65;;
20034;SDS011;10178;48.034;9.800;2023-02-15T16:17:36;27.42;;;13.50;;
20034;SDS011;10178;48.034;9.800;2023-02-15T16:20:14;33.03;;;15.23;;
20034;SDS011;10178;48.034;9.800;2023-02-15T16:22:43;26.63;;;15.05;;
20034;SDS011;10178;48.034;9.800;2023-02-15T16:28:07;25.57;;;15.27;;
20034;SDS011;10178;48.034;9.800;2023-02-15T16:30:36;22.90;;;14.27;;
20034;SDS011;10178;48.034;9.800;2023-02-15T16:33:08;27.00;;;14.23;;
20034;SDS011;10178;48.034;9.800;2023-02-15T16:43:59;25.00;;;13.13;;
20034;SDS011;10178;48.034;9.800;2023-02-15T16:46:30;22.95;;;13.68;;
20034;SDS011;10178;48.034;9.800;2023-02-15T16:49:14;18.50;;;11.23;;
20034;SDS011;10178;48.034;9.800;2023-02-15T16:51:53;27.38;;;14.57;;
20034;SDS011;10178;48.034;9.800;2023-02-15T16:54:23;34.92;;;16.23;;
20034;SDS011;10178;48.034;9.800;2023-02-15T16:56:50;40.13;;;17.03;;
20034;SDS011;10178;48.034;9.800;2023-02-15T16:59:19;31.35;;;16.55;;
20034;SDS011;10178;48.034;9.800;2023-02-15T17:01:53;28.13;;;15.83;;
20034;SDS011;10178;48.034;9.800;2023-02-15T17:07:04;28.20;;;16.20;;
20034;SDS011;10178;48.034;9.800;2023-02-15T17:09:56;28.70;;;15.93;;
20034;SDS011;10178;48.034;9.800;2023-02-15T17:17:56;32.33;;;20.30;;
20034;SDS011;10178;48.034;9.800;2023-02-15T17:20:25;34.87;;;22.37;;
20034;SDS011;10178;48.034;9.800;2023-02-15T17:22:51;37.53;;;22.60;;
20034;SDS011;10178;48.034;9.800;2023-02-15T17:25:23;34.37;;;20.37;;
20034;SDS011;10178;48.034;9.800;2023-02-15T17:27:58;30.93;;;18.47;;
20034;SDS011;10178;48.034;9.800;2023-02-15T17:30:26;29.80;;;17.17;;
20034;SDS011;10178;48.034;9.800;2023-02-15T17:32:57;30.17;;;16.67;;
20034;SDS011;10178;48.034;9.800;2023-02-15T17:35:25;25.43;;;16.17;;
20034;SDS011;10178;48.034;9.800;2023-02-15T17:38:03;37.10;;;18.93;;
20034;SDS011;10178;48.034;9.800;2023-02-15T17:40:41;31.03;;;18.43;;
20034;SDS011;10178;48.034;9.800;2023-02-15T17:43:06;31.37;;;18.07;;
20034;SDS011;10178;48.034;9.800;2023-02-15T17:45:36;31.20;;;18.23;;
20034;SDS011;10178;48.034;9.800;2023-02-15T17:48:19;25.73;;;15.87;;
20034;SDS011;10178;48.034;9.800;2023-02-15T17:51:06;33.57;;;18.20;;
20034;SDS011;10178;48.034;9.800;2023-02-15T17:53:36;26.50;;;16.20;;
20034;SDS011;10178;48.034;9.800;2023-02-15T17:56:02;21.15;;;13.88;;
20034;SDS011;10178;48.034;9.800;2023-02-15T17:58:34;20.57;;;13.13;;
20034;SDS011;10178;48.034;9.800;2023-02-15T18:01:01;23.67;;;13.30;;
20034;SDS011;10178;48.034;9.800;2023-02-15T18:03:51;21.57;;;13.93;;
20034;SDS011;10178;48.034;9.800;2023-02-15T18:06:40;19.75;;;13.02;;
20034;SDS011;10178;48.034;9.800;2023-02-15T18:09:25;20.90;;;12.90;;
20034;SDS011;10178;48.034;9.800;2023-02-15T18:12:29;18.37;;;12.13;;
20034;SDS011;10178;48.034;9.800;2023-02-15T18:14:57;21.77;;;13.65;;
20034;SDS011;10178;48.034;9.800;2023-02-15T18:17:34;17.70;;;12.20;;
20034;SDS011;10178;48.034;9.800;2023-02-15T18:20:00;22.07;;;12.43;;
20034;SDS011;10178;48.034;9.800;2023-02-15T18:22:30;17.60;;;11.65;;
20034;SDS011;10178;48.034;9.800;2023-02-15T18:24:56;19.47;;;12.10;;
20034;SDS011;10178;48.034;9.800;2023-02-15T18:27:24;17.20;;;11.75;;
20034;SDS011;10178;48.034;9.800;2023-02-15T18:29:50;17.60;;;11.53;;
20034;SDS011;10178;48.034;9.800;2023-02-15T18:32:16;19.00;;;12.15;;
20034;SDS011;10178;48.034;9.800;2023-02-15T18:34:58;17.55;;;11.15;;
20034;SDS011;10178;48.034;9.800;2023-02-15T18:37:24;18.73;;;12.23;;
20034;SDS011;10178;48.034;9.800;2023-02-15T18:39:53;26.53;;;15.33;;
20034;SDS011;10178;48.034;9.800;2023-02-15T18:44:45;17.88;;;11.63;;
20034;SDS011;10178;48.034;9.800;2023-02-15T18:47:10;20.53;;;11.90;;
20034;SDS011;10178;48.034;9.800;2023-02-15T18:49:36;17.97;;;12.10;;
20034;SDS011;10178;48.034;9.800;2023-02-15T18:52:01;17.73;;;11.30;;
20034;SDS011;10178;48.034;9.800;2023-02-15T18:54:27;21.93;;;11.93;;
20034;SDS011;10178;48.034;9.800;2023-02-15T18:56:56;21.07;;;13.00;;
20034;SDS011;10178;48.034;9.800;2023-02-15T18:59:25;18.13;;;11.57;;
20034;SDS011;10178;48.034;9.800;2023-02-15T19:01:52;16.88;;;11.48;;
20034;SDS011;10178;48.034;9.800;2023-02-15T19:04:18;18.63;;;11.90;;
20034;SDS011;10178;48.034;9.800;2023-02-15T19:06:45;16.77;;;11.20;;
20034;SDS011;10178;48.034;9.800;2023-02-15T19:09:22;19.67;;;11.50;;
20034;SDS011;10178;48.034;9.800;2023-02-15T19:11:49;23.27;;;12.20;;
20034;SDS011;10178;48.034;9.800;2023-02-15T19:14:23;19.93;;;11.73;;
20034;SDS011;10178;48.034;9.800;2023-02-15T19:16:49;17.73;;;11.93;;
20034;SDS011;10178;48.034;9.800;2023-02-15T19:19:15;18.27;;;11.40;;
20034;SDS011;10178;48.034;9.800;2023-02-15T19:21:41;19.03;;;11.40;;
20034;SDS011;10178;48.034;9.800;2023-02-15T19:24:08;17.17;;;11.17;;
20034;SDS011;10178;48.034;9.800;2023-02-15T19:26:41;19.37;;;12.13;;